Whitbourne, Canada
Current Conditions -  °F | °C
As of 9:27 AM on Saturday 25 Oct 2014 (Local Time) from CYYT Reporting Station
Rain Showers Rain Showers  
Wind Chill: 44°   Ceiling: 100
Heat Index: 48°   Visibility: 0.12mi
Dew Point: 48°   Wind: 10mph
Humidity: 100%   Direction: 30°NNE
Pressure: 29.44"   Gusts: NA
Location:  47.42°N, 53.53°W
Report Text: CYYT 251127Z 03009KT 1/8SM R11/P6000FT/D -SHRA FG VV001 09/09 A2944 RMK FG8 SLP973
Loading
Personal Weather Stations






























Interactive Weather Map
Tropical Storm Tracking
New forecast layout! Learn more

10-Day Weather Forecast

Advertisements
Track Severe Weather on mobile